Portada
METAR-TAF:

METAR-TAF

Aeroports :

Bombai, Índia

latitud: 19-05-53N, longitud: 072-50-02E, altitud: 4 m

Observació

L'informe es va fer fa 11 hores i 55 minuts, a les 12:30 UTC
Vent 5 kt del Oest
Temperatura 28°C
Humitat 62%
Pressió 1008 hPa
Visibilitat: 5000 m
fum

METAR: VAJJ 301230Z 26005KT 5000 FU NSC 28/20 Q1008 NOSIG

Hora: 05:55 (00:25 UTC)


TAF: manca

Observacions i pronòstics meteorològics de més de 4000 aeroports (METAR i TAF).

Les estacions disponibles són els punts grocs i vermells al mapa.

Posi el ratolí al punt desitjat per veure el nom de l'estació.

Feu clic per veure les observacions i els pronòstics meteorològics.

Per canviar el mapa: feu clic els botons verds amb una creu de color negre per apropar; al botó verd amb un guió per allunyar la imatge; o en les fletxes verdes per a mapes adjacents.


METAR-TAF: